createdAt,value
2023-05-19T00:04:34.369Z,10.5
2023-05-19T00:10:25.855Z,10.6
2023-05-19T00:16:02.229Z,10.6
2023-05-19T00:21:55.101Z,10.6
2023-05-19T00:27:46.888Z,10.6
2023-05-19T00:33:38.530Z,10.4
2023-05-19T00:39:30.608Z,10.4
2023-05-19T00:45:06.479Z,10.3
2023-05-19T00:50:43.362Z,10.3
2023-05-19T00:56:20.432Z,10.1
2023-05-19T01:01:56.807Z,10
2023-05-19T01:07:49.713Z,9.9
2023-05-19T01:13:26.280Z,9.8
2023-05-19T01:19:18.316Z,9.8
2023-05-19T01:25:09.487Z,9.6
2023-05-19T01:30:46.154Z,9.5
2023-05-19T01:36:07.128Z,9.4
2023-05-19T01:41:43.000Z,9.4
2023-05-19T01:47:19.815Z,9.4
2023-05-19T01:52:57.491Z,9.4
2023-05-19T01:58:49.078Z,9.4
2023-05-19T02:04:25.862Z,9.4
2023-05-19T02:10:01.428Z,9.2
2023-05-19T02:15:52.981Z,9.1
2023-05-19T02:21:45.549Z,9.1
2023-05-19T02:27:21.556Z,9.3
2023-05-19T02:32:58.223Z,9.4
2023-05-19T02:38:34.735Z,9.4
2023-05-19T02:44:10.593Z,9.5
2023-05-19T02:49:47.107Z,9.4
2023-05-19T02:55:08.643Z,9.4
2023-05-19T03:01:00.326Z,9.3
2023-05-19T03:06:37.592Z,9.3
2023-05-19T03:12:29.402Z,9.3
2023-05-19T03:18:06.015Z,9.3
2023-05-19T03:23:57.636Z,9.3
2023-05-19T03:29:49.309Z,9.4
2023-05-19T03:35:42.480Z,9.5
2023-05-19T03:41:33.793Z,9.6
2023-05-19T03:47:26.113Z,9.6
2023-05-19T03:53:17.353Z,9.7
2023-05-19T03:58:53.144Z,9.8
2023-05-19T04:04:46.270Z,9.9
2023-05-19T04:10:37.466Z,10.2
2023-05-19T04:16:28.722Z,10.4
2023-05-19T04:22:21.268Z,10.9
2023-05-19T04:28:11.942Z,11
2023-05-19T04:34:03.927Z,11.1
2023-05-19T04:39:43.502Z,11.3
2023-05-19T04:45:35.052Z,11.6
2023-05-19T04:51:29.208Z,11.6
2023-05-19T04:57:20.927Z,12
2023-05-19T05:02:57.135Z,12
2023-05-19T05:08:48.829Z,12.3
2023-05-19T05:14:40.634Z,12.4
2023-05-19T05:20:32.682Z,12.6
2023-05-19T05:31:45.642Z,12.8
2023-05-19T05:37:23.008Z,13
2023-05-19T05:43:00.551Z,13.4
2023-05-19T05:48:53.174Z,13.4
2023-05-19T05:54:41.217Z,13.9
2023-05-19T06:00:16.806Z,14.3
2023-05-19T06:05:54.434Z,14.3
2023-05-19T06:11:46.902Z,14.8
2023-05-19T06:17:23.676Z,14.9
2023-05-19T06:23:00.982Z,14.9
2023-05-19T06:28:38.197Z,15.4
2023-05-19T06:34:34.116Z,15.9
2023-05-19T06:40:11.431Z,16.6
2023-05-19T06:45:49.929Z,17.2
2023-05-19T06:51:26.337Z,16.8
2023-05-19T06:57:11.584Z,16.8
2023-05-19T07:03:04.140Z,17.9
2023-05-19T07:08:43.734Z,17.6
2023-05-19T07:14:21.797Z,17.9
2023-05-19T07:19:27.426Z,17.4
2023-05-19T07:24:47.775Z,17.1
2023-05-19T07:30:27.119Z,18.6
2023-05-19T07:36:03.840Z,17.5
2023-05-19T07:41:40.718Z,18.9
2023-05-19T07:46:47.326Z,19.5
2023-05-19T07:52:25.789Z,19.6
2023-05-19T07:57:46.747Z,20.4
2023-05-19T08:03:08.904Z,20.9
2023-05-19T08:08:45.251Z,21.1
2023-05-19T08:14:21.046Z,20.1
2023-05-19T08:19:58.454Z,21
2023-05-19T08:25:34.015Z,22.2
2023-05-19T08:31:09.438Z,22.6
2023-05-19T08:36:46.150Z,22.1
2023-05-19T08:42:06.772Z,22.2
2023-05-19T08:47:27.569Z,22.8
2023-05-19T08:53:15.224Z,20.9
2023-05-19T08:58:59.650Z,21.5
2023-05-19T09:04:54.298Z,22.4
2023-05-19T09:10:31.698Z,21.8
2023-05-19T09:16:08.447Z,21.6
2023-05-19T09:21:47.823Z,22.6
2023-05-19T09:27:24.692Z,24.5
2023-05-19T09:33:00.879Z,22.7
2023-05-19T09:38:36.985Z,23
2023-05-19T09:44:29.167Z,23.9
2023-05-19T09:50:06.101Z,23.9
2023-05-19T09:55:27.338Z,24.2
2023-05-19T10:01:22.806Z,23.1
2023-05-19T10:07:00.956Z,23.9
2023-05-19T10:12:52.339Z,23.6
2023-05-19T10:18:30.662Z,23.1
2023-05-19T10:24:07.243Z,23.1
2023-05-19T10:29:58.597Z,23.5
2023-05-19T10:35:37.532Z,22.1
2023-05-19T10:41:14.451Z,21.9
2023-05-19T10:47:06.609Z,22.9
2023-05-19T10:52:59.306Z,22.5
2023-05-19T10:58:35.933Z,23.4
2023-05-19T11:04:33.703Z,24.2
2023-05-19T11:10:40.886Z,22.9
2023-05-19T11:16:33.893Z,24.1
2023-05-19T11:22:26.471Z,24.7
2023-05-19T11:28:22.287Z,23.9
2023-05-19T11:34:14.704Z,24.2
2023-05-19T11:40:07.039Z,24.5
2023-05-19T11:45:59.394Z,23
2023-05-19T11:52:10.702Z,22.9
2023-05-19T11:58:19.779Z,24.4
2023-05-19T12:04:12.616Z,22.4
2023-05-19T12:10:10.612Z,22.3
2023-05-19T12:16:04.791Z,20.4
2023-05-19T12:21:50.841Z,18.4
2023-05-19T12:27:42.067Z,16.7
2023-05-19T12:33:35.630Z,16.3
2023-05-19T12:39:28.132Z,16
2023-05-19T12:45:19.956Z,15.9
2023-05-19T12:51:12.670Z,16.2
2023-05-19T12:57:08.270Z,16.7
2023-05-19T13:03:17.600Z,17.3
2023-05-19T13:09:10.798Z,17.9
2023-05-19T13:15:03.754Z,18.6
2023-05-19T13:21:09.565Z,18.8
2023-05-19T13:26:30.729Z,18.9
2023-05-19T13:32:08.705Z,19.1
2023-05-19T13:38:00.499Z,19.7
2023-05-19T13:43:52.451Z,19.8
2023-05-19T13:49:56.296Z,19.8
2023-05-19T13:55:47.727Z,19.6
2023-05-19T14:01:39.228Z,19.6
2023-05-19T14:07:17.741Z,19.4
2023-05-19T14:13:31.916Z,19.6
2023-05-19T14:19:32.923Z,19.4
2023-05-19T14:25:25.586Z,19.4
2023-05-19T14:31:03.323Z,19.6
2023-05-19T14:36:59.747Z,19.6
2023-05-19T14:42:36.887Z,20.6
2023-05-19T14:48:14.959Z,20.7
2023-05-19T14:53:53.519Z,20.8
2023-05-19T14:59:41.991Z,20.9
2023-05-19T15:05:21.943Z,21.4
2023-05-19T15:11:17.738Z,21.7
2023-05-19T15:17:28.901Z,22.1
2023-05-19T15:23:20.601Z,21.3
2023-05-19T15:28:56.132Z,23.1
2023-05-19T15:34:33.574Z,23.4
2023-05-19T15:40:24.625Z,24.1
2023-05-19T15:46:16.187Z,23.9
2023-05-19T15:52:08.732Z,22.7
2023-05-19T15:57:44.619Z,22.4
2023-05-19T16:03:22.835Z,21
2023-05-19T16:09:16.064Z,20.4
2023-05-19T16:15:07.190Z,20
2023-05-19T16:20:44.710Z,19.9
2023-05-19T16:26:21.637Z,20.9
2023-05-19T16:31:57.658Z,20.3
2023-05-19T16:37:34.417Z,20.3
2023-05-19T16:43:12.277Z,19.6
2023-05-19T16:48:49.649Z,19.5
2023-05-19T16:54:41.931Z,19.4
2023-05-19T17:00:18.585Z,19.2
2023-05-19T17:11:20.437Z,18.5
2023-05-19T17:16:42.134Z,18.3
2023-05-19T17:22:18.629Z,18.2
2023-05-19T17:28:09.802Z,17.9
2023-05-19T17:33:47.016Z,17.8
2023-05-19T17:39:25.814Z,17.6
2023-05-19T17:45:16.712Z,17.4
2023-05-19T17:50:53.085Z,17.4
2023-05-19T17:55:58.445Z,17.5
2023-05-19T18:01:18.722Z,17.6
2023-05-19T18:06:56.929Z,17.6
2023-05-19T18:12:36.133Z,17.6
2023-05-19T18:18:12.262Z,17.6
2023-05-19T18:23:49.228Z,17.6
2023-05-19T18:29:25.024Z,17.4
2023-05-19T18:34:45.817Z,17.3
2023-05-19T18:40:06.280Z,17.1
2023-05-19T18:45:11.748Z,17.2
2023-05-19T18:50:32.105Z,17.1
2023-05-19T18:55:38.449Z,17.1
2023-05-19T19:05:33.548Z,16.9
2023-05-19T19:11:10.140Z,16.6
2023-05-19T19:16:47.734Z,16.4
2023-05-19T19:22:23.761Z,16.2
2023-05-19T19:28:00.223Z,16.1
2023-05-19T19:33:39.354Z,15.8
2023-05-19T19:39:14.786Z,15.4
2023-05-19T19:44:51.441Z,15.2
2023-05-19T19:50:43.459Z,14.9
2023-05-19T19:56:18.764Z,14.8
2023-05-19T20:01:55.004Z,14.6
2023-05-19T20:07:51.090Z,14.4
2023-05-19T20:13:11.425Z,14.3
2023-05-19T20:18:49.459Z,14.4
2023-05-19T20:24:27.206Z,14.3
2023-05-19T20:30:26.025Z,14.3
2023-05-19T20:36:04.349Z,14.4
2023-05-19T20:41:24.168Z,14.6
2023-05-19T20:47:00.694Z,15
2023-05-19T20:52:37.401Z,14.8
2023-05-19T20:58:13.225Z,14.8
2023-05-19T21:04:04.912Z,14.8
2023-05-19T21:09:41.837Z,14.7
2023-05-19T21:15:17.744Z,13.8
2023-05-19T21:21:08.940Z,13.6
2023-05-19T21:26:45.656Z,13.7
2023-05-19T21:32:37.063Z,13.1
2023-05-19T21:38:23.222Z,13.1
2023-05-19T21:44:18.125Z,12.9
2023-05-19T21:49:54.797Z,13.1
2023-05-19T21:55:45.457Z,12.3
2023-05-19T22:01:37.754Z,11.6
2023-05-19T22:07:29.920Z,11.4
2023-05-19T22:13:20.377Z,11.3
2023-05-19T22:18:56.870Z,11.6
2023-05-19T22:25:01.671Z,11.6
2023-05-19T22:30:55.720Z,11.4
2023-05-19T22:36:47.928Z,11.3
2023-05-19T22:42:40.393Z,11.2
2023-05-19T22:48:32.729Z,11
2023-05-19T22:54:27.436Z,11
2023-05-19T23:00:18.867Z,11
2023-05-19T23:06:09.925Z,11
2023-05-19T23:12:01.438Z,10.7
2023-05-19T23:17:53.724Z,10.5
2023-05-19T23:23:45.957Z,10.2
2023-05-19T23:29:38.067Z,9.9
2023-05-19T23:35:31.601Z,9.8
2023-05-19T23:41:22.207Z,9.9
2023-05-19T23:47:14.164Z,9.7
2023-05-19T23:53:05.831Z,9.7
2023-05-19T23:58:57.710Z,9.6
